sensor_id;sensor_type;location;lat;lon;timestamp;temperature;humidity
2999;DHT22;1509;51.964;7.628;2023-06-19T00:00:09;24.50;99.90
2999;DHT22;1509;51.964;7.628;2023-06-19T00:02:40;24.50;99.90
2999;DHT22;1509;51.964;7.628;2023-06-19T00:05:06;24.50;99.90
2999;DHT22;1509;51.964;7.628;2023-06-19T00:07:36;24.50;99.90
2999;DHT22;1509;51.964;7.628;2023-06-19T00:10:03;24.60;99.90
2999;DHT22;1509;51.964;7.628;2023-06-19T00:12:29;24.60;99.90
2999;DHT22;1509;51.964;7.628;2023-06-19T00:14:54;24.50;99.90
2999;DHT22;1509;51.964;7.628;2023-06-19T00:17:20;24.50;99.90
2999;DHT22;1509;51.964;7.628;2023-06-19T00:19:45;24.50;99.90
2999;DHT22;1509;51.964;7.628;2023-06-19T00:22:12;24.40;99.90
2999;DHT22;1509;51.964;7.628;2023-06-19T00:24:37;24.40;99.90
2999;DHT22;1509;51.964;7.628;2023-06-19T00:27:03;24.50;99.90
2999;DHT22;1509;51.964;7.628;2023-06-19T00:29:32;24.50;99.90
2999;DHT22;1509;51.964;7.628;2023-06-19T00:31:59;24.40;99.90
2999;DHT22;1509;51.964;7.628;2023-06-19T00:34:25;24.40;99.90
2999;DHT22;1509;51.964;7.628;2023-06-19T00:36:53;24.40;99.90
2999;DHT22;1509;51.964;7.628;2023-06-19T00:39:25;24.40;99.90
2999;DHT22;1509;51.964;7.628;2023-06-19T00:41:54;24.40;99.90
2999;DHT22;1509;51.964;7.628;2023-06-19T00:44:20;24.30;99.90
2999;DHT22;1509;51.964;7.628;2023-06-19T00:46:46;24.30;99.90
2999;DHT22;1509;51.964;7.628;2023-06-19T00:49:15;24.20;99.90
2999;DHT22;1509;51.964;7.628;2023-06-19T00:51:40;24.30;99.90
2999;DHT22;1509;51.964;7.628;2023-06-19T00:54:06;24.30;99.90
2999;DHT22;1509;51.964;7.628;2023-06-19T00:56:32;24.20;99.90
2999;DHT22;1509;51.964;7.628;2023-06-19T00:59:00;24.20;99.90
2999;DHT22;1509;51.964;7.628;2023-06-19T01:01:26;24.30;99.90
2999;DHT22;1509;51.964;7.628;2023-06-19T01:03:52;24.20;99.90
2999;DHT22;1509;51.964;7.628;2023-06-19T01:06:25;24.10;99.90
2999;DHT22;1509;51.964;7.628;2023-06-19T01:09:02;24.20;99.90
2999;DHT22;1509;51.964;7.628;2023-06-19T01:11:37;24.20;99.90
2999;DHT22;1509;51.964;7.628;2023-06-19T01:14:09;24.20;99.90
2999;DHT22;1509;51.964;7.628;2023-06-19T01:16:38;24.20;99.90
2999;DHT22;1509;51.964;7.628;2023-06-19T01:19:05;24.20;99.90
2999;DHT22;1509;51.964;7.628;2023-06-19T01:21:35;24.20;99.90
2999;DHT22;1509;51.964;7.628;2023-06-19T01:24:02;24.20;99.90
2999;DHT22;1509;51.964;7.628;2023-06-19T01:26:30;24.10;99.90
2999;DHT22;1509;51.964;7.628;2023-06-19T01:28:56;24.20;99.90
2999;DHT22;1509;51.964;7.628;2023-06-19T01:31:33;24.10;99.90
2999;DHT22;1509;51.964;7.628;2023-06-19T01:34:01;24.10;99.90
2999;DHT22;1509;51.964;7.628;2023-06-19T01:36:29;24.00;99.90
2999;DHT22;1509;51.964;7.628;2023-06-19T01:38:57;24.00;99.90
2999;DHT22;1509;51.964;7.628;2023-06-19T01:41:24;24.00;99.90
2999;DHT22;1509;51.964;7.628;2023-06-19T01:43:50;24.00;99.90
2999;DHT22;1509;51.964;7.628;2023-06-19T01:46:16;23.90;99.90
2999;DHT22;1509;51.964;7.628;2023-06-19T01:48:42;23.90;99.90
2999;DHT22;1509;51.964;7.628;2023-06-19T01:51:08;23.90;99.90
2999;DHT22;1509;51.964;7.628;2023-06-19T01:53:33;23.80;99.90
2999;DHT22;1509;51.964;7.628;2023-06-19T01:56:00;23.70;99.90
2999;DHT22;1509;51.964;7.628;2023-06-19T01:58:26;23.70;99.90
2999;DHT22;1509;51.964;7.628;2023-06-19T02:00:51;23.70;99.90
2999;DHT22;1509;51.964;7.628;2023-06-19T02:03:17;23.70;99.90
2999;DHT22;1509;51.964;7.628;2023-06-19T02:05:43;23.60;99.90
2999;DHT22;1509;51.964;7.628;2023-06-19T02:08:08;23.50;99.90
2999;DHT22;1509;51.964;7.628;2023-06-19T02:10:34;23.60;99.90
2999;DHT22;1509;51.964;7.628;2023-06-19T02:13:00;23.50;99.90
2999;DHT22;1509;51.964;7.628;2023-06-19T02:15:28;23.40;99.90
2999;DHT22;1509;51.964;7.628;2023-06-19T02:17:57;23.40;99.90
2999;DHT22;1509;51.964;7.628;2023-06-19T02:20:23;23.40;99.90
2999;DHT22;1509;51.964;7.628;2023-06-19T02:22:52;23.30;99.90
2999;DHT22;1509;51.964;7.628;2023-06-19T02:25:18;23.20;99.90
2999;DHT22;1509;51.964;7.628;2023-06-19T02:27:44;23.20;99.90
2999;DHT22;1509;51.964;7.628;2023-06-19T02:30:10;23.20;99.90
2999;DHT22;1509;51.964;7.628;2023-06-19T02:32:36;23.20;99.90
2999;DHT22;1509;51.964;7.628;2023-06-19T02:35:04;23.30;99.90
2999;DHT22;1509;51.964;7.628;2023-06-19T02:37:30;23.30;99.90
2999;DHT22;1509;51.964;7.628;2023-06-19T02:39:55;23.30;99.90
2999;DHT22;1509;51.964;7.628;2023-06-19T02:42:21;23.40;99.90
2999;DHT22;1509;51.964;7.628;2023-06-19T02:44:46;23.40;99.90
2999;DHT22;1509;51.964;7.628;2023-06-19T02:47:12;23.40;99.90
2999;DHT22;1509;51.964;7.628;2023-06-19T02:49:37;23.30;99.90
2999;DHT22;1509;51.964;7.628;2023-06-19T02:52:04;23.40;99.90
2999;DHT22;1509;51.964;7.628;2023-06-19T02:54:30;23.30;99.90
2999;DHT22;1509;51.964;7.628;2023-06-19T02:56:55;23.30;99.90
2999;DHT22;1509;51.964;7.628;2023-06-19T02:59:24;23.30;99.90
2999;DHT22;1509;51.964;7.628;2023-06-19T03:01:49;23.20;99.90
2999;DHT22;1509;51.964;7.628;2023-06-19T03:04:15;23.30;99.90
2999;DHT22;1509;51.964;7.628;2023-06-19T03:06:40;23.20;99.90
2999;DHT22;1509;51.964;7.628;2023-06-19T03:09:06;23.20;99.90
2999;DHT22;1509;51.964;7.628;2023-06-19T03:11:41;23.20;99.90
2999;DHT22;1509;51.964;7.628;2023-06-19T03:14:07;23.20;99.90
2999;DHT22;1509;51.964;7.628;2023-06-19T03:16:33;23.20;99.90
2999;DHT22;1509;51.964;7.628;2023-06-19T03:18:59;23.20;99.90
2999;DHT22;1509;51.964;7.628;2023-06-19T03:21:25;23.10;99.90
2999;DHT22;1509;51.964;7.628;2023-06-19T03:23:51;23.10;99.90
2999;DHT22;1509;51.964;7.628;2023-06-19T03:26:19;23.00;99.90
2999;DHT22;1509;51.964;7.628;2023-06-19T03:28:45;23.00;99.90
2999;DHT22;1509;51.964;7.628;2023-06-19T03:31:12;23.00;99.90
2999;DHT22;1509;51.964;7.628;2023-06-19T03:33:38;23.00;99.90
2999;DHT22;1509;51.964;7.628;2023-06-19T03:36:04;22.90;99.90
2999;DHT22;1509;51.964;7.628;2023-06-19T03:38:30;22.90;99.90
2999;DHT22;1509;51.964;7.628;2023-06-19T03:40:55;22.80;99.90
2999;DHT22;1509;51.964;7.628;2023-06-19T03:43:21;22.70;99.90
2999;DHT22;1509;51.964;7.628;2023-06-19T03:45:46;22.70;99.90
2999;DHT22;1509;51.964;7.628;2023-06-19T03:48:12;22.70;99.90
2999;DHT22;1509;51.964;7.628;2023-06-19T03:50:38;22.70;99.90
2999;DHT22;1509;51.964;7.628;2023-06-19T03:53:03;22.60;99.90
2999;DHT22;1509;51.964;7.628;2023-06-19T03:55:30;22.60;99.90
2999;DHT22;1509;51.964;7.628;2023-06-19T03:57:55;22.60;99.90
2999;DHT22;1509;51.964;7.628;2023-06-19T04:00:21;22.50;99.90
2999;DHT22;1509;51.964;7.628;2023-06-19T04:02:47;22.40;99.90
2999;DHT22;1509;51.964;7.628;2023-06-19T04:05:13;22.60;99.90
2999;DHT22;1509;51.964;7.628;2023-06-19T04:07:39;22.30;99.90
2999;DHT22;1509;51.964;7.628;2023-06-19T04:10:05;22.50;99.90
2999;DHT22;1509;51.964;7.628;2023-06-19T04:12:31;22.40;99.90
2999;DHT22;1509;51.964;7.628;2023-06-19T04:14:56;22.40;99.90
2999;DHT22;1509;51.964;7.628;2023-06-19T04:17:22;22.40;99.90
2999;DHT22;1509;51.964;7.628;2023-06-19T04:19:48;22.40;99.90
2999;DHT22;1509;51.964;7.628;2023-06-19T04:22:13;22.20;99.90
2999;DHT22;1509;51.964;7.628;2023-06-19T04:24:39;22.20;99.90
2999;DHT22;1509;51.964;7.628;2023-06-19T04:27:05;22.20;99.90
2999;DHT22;1509;51.964;7.628;2023-06-19T04:29:34;22.20;99.90
2999;DHT22;1509;51.964;7.628;2023-06-19T04:32:00;22.20;99.90
2999;DHT22;1509;51.964;7.628;2023-06-19T04:34:26;22.20;99.90
2999;DHT22;1509;51.964;7.628;2023-06-19T04:36:51;22.30;99.90
2999;DHT22;1509;51.964;7.628;2023-06-19T04:39:17;22.30;99.90
2999;DHT22;1509;51.964;7.628;2023-06-19T04:41:44;22.30;99.90
2999;DHT22;1509;51.964;7.628;2023-06-19T04:44:12;22.20;99.90
2999;DHT22;1509;51.964;7.628;2023-06-19T04:46:38;22.30;99.90
2999;DHT22;1509;51.964;7.628;2023-06-19T04:49:04;22.30;99.90
2999;DHT22;1509;51.964;7.628;2023-06-19T04:51:33;22.30;99.90
2999;DHT22;1509;51.964;7.628;2023-06-19T04:53:59;22.20;99.90
2999;DHT22;1509;51.964;7.628;2023-06-19T04:56:25;22.20;99.90
2999;DHT22;1509;51.964;7.628;2023-06-19T04:58:51;22.30;99.90
2999;DHT22;1509;51.964;7.628;2023-06-19T05:01:17;22.30;99.90
2999;DHT22;1509;51.964;7.628;2023-06-19T05:03:45;22.30;99.90
2999;DHT22;1509;51.964;7.628;2023-06-19T05:06:11;22.30;99.90
2999;DHT22;1509;51.964;7.628;2023-06-19T05:08:37;22.30;99.90
2999;DHT22;1509;51.964;7.628;2023-06-19T05:11:03;22.30;99.90
2999;DHT22;1509;51.964;7.628;2023-06-19T05:13:29;22.30;99.90
2999;DHT22;1509;51.964;7.628;2023-06-19T05:15:54;22.20;99.90
2999;DHT22;1509;51.964;7.628;2023-06-19T05:18:21;22.00;99.90
2999;DHT22;1509;51.964;7.628;2023-06-19T05:20:47;22.20;99.90
2999;DHT22;1509;51.964;7.628;2023-06-19T05:23:13;22.20;99.90
2999;DHT22;1509;51.964;7.628;2023-06-19T05:25:38;22.20;99.90
2999;DHT22;1509;51.964;7.628;2023-06-19T05:28:04;22.20;99.90
2999;DHT22;1509;51.964;7.628;2023-06-19T05:30:30;22.20;99.90
2999;DHT22;1509;51.964;7.628;2023-06-19T05:32:55;22.20;99.90
2999;DHT22;1509;51.964;7.628;2023-06-19T05:35:21;22.20;99.90
2999;DHT22;1509;51.964;7.628;2023-06-19T05:37:47;22.20;99.90
2999;DHT22;1509;51.964;7.628;2023-06-19T05:40:13;22.10;99.90
2999;DHT22;1509;51.964;7.628;2023-06-19T05:42:40;22.10;99.90
2999;DHT22;1509;51.964;7.628;2023-06-19T05:45:06;22.10;99.90
2999;DHT22;1509;51.964;7.628;2023-06-19T05:47:32;22.10;99.90
2999;DHT22;1509;51.964;7.628;2023-06-19T05:49:58;22.20;99.90
2999;DHT22;1509;51.964;7.628;2023-06-19T05:52:24;22.20;99.90
2999;DHT22;1509;51.964;7.628;2023-06-19T05:54:49;22.20;99.90
2999;DHT22;1509;51.964;7.628;2023-06-19T05:57:15;22.10;99.90
2999;DHT22;1509;51.964;7.628;2023-06-19T05:59:42;22.10;99.90
2999;DHT22;1509;51.964;7.628;2023-06-19T06:02:07;22.10;99.90
2999;DHT22;1509;51.964;7.628;2023-06-19T06:04:34;22.10;99.90
2999;DHT22;1509;51.964;7.628;2023-06-19T06:07:00;22.10;99.90
2999;DHT22;1509;51.964;7.628;2023-06-19T06:09:26;22.10;99.90
2999;DHT22;1509;51.964;7.628;2023-06-19T06:11:52;22.00;99.90
2999;DHT22;1509;51.964;7.628;2023-06-19T06:14:18;22.00;99.90
2999;DHT22;1509;51.964;7.628;2023-06-19T06:16:44;22.00;99.90
2999;DHT22;1509;51.964;7.628;2023-06-19T06:19:12;22.00;99.90
2999;DHT22;1509;51.964;7.628;2023-06-19T06:21:38;21.90;99.90
2999;DHT22;1509;51.964;7.628;2023-06-19T06:24:03;22.00;99.90
2999;DHT22;1509;51.964;7.628;2023-06-19T06:26:29;22.10;99.90
2999;DHT22;1509;51.964;7.628;2023-06-19T06:28:55;22.20;99.90
2999;DHT22;1509;51.964;7.628;2023-06-19T06:31:22;22.10;99.90
2999;DHT22;1509;51.964;7.628;2023-06-19T06:33:48;22.20;99.90
2999;DHT22;1509;51.964;7.628;2023-06-19T06:36:17;22.20;99.90
2999;DHT22;1509;51.964;7.628;2023-06-19T06:38:43;22.20;99.90
2999;DHT22;1509;51.964;7.628;2023-06-19T06:41:08;22.10;99.90
2999;DHT22;1509;51.964;7.628;2023-06-19T06:43:34;22.20;99.90
2999;DHT22;1509;51.964;7.628;2023-06-19T06:46:00;22.10;99.90
2999;DHT22;1509;51.964;7.628;2023-06-19T06:48:26;22.30;99.90
2999;DHT22;1509;51.964;7.628;2023-06-19T06:50:52;22.40;99.90
2999;DHT22;1509;51.964;7.628;2023-06-19T06:53:27;22.40;99.90
2999;DHT22;1509;51.964;7.628;2023-06-19T06:55:53;22.50;99.90
2999;DHT22;1509;51.964;7.628;2023-06-19T06:58:19;22.50;99.90
2999;DHT22;1509;51.964;7.628;2023-06-19T07:00:45;22.70;99.90
2999;DHT22;1509;51.964;7.628;2023-06-19T07:03:11;22.60;99.90
2999;DHT22;1509;51.964;7.628;2023-06-19T07:05:36;22.50;99.90
2999;DHT22;1509;51.964;7.628;2023-06-19T07:08:02;22.50;99.90
2999;DHT22;1509;51.964;7.628;2023-06-19T07:10:29;22.50;99.90
2999;DHT22;1509;51.964;7.628;2023-06-19T07:12:55;22.50;99.90
2999;DHT22;1509;51.964;7.628;2023-06-19T07:15:20;22.40;99.90
2999;DHT22;1509;51.964;7.628;2023-06-19T07:17:48;22.50;99.90
2999;DHT22;1509;51.964;7.628;2023-06-19T07:20:14;22.50;99.90
2999;DHT22;1509;51.964;7.628;2023-06-19T07:22:41;22.50;99.90
2999;DHT22;1509;51.964;7.628;2023-06-19T07:25:09;22.30;99.90
2999;DHT22;1509;51.964;7.628;2023-06-19T07:27:35;22.60;99.90
2999;DHT22;1509;51.964;7.628;2023-06-19T07:30:01;22.60;99.90
2999;DHT22;1509;51.964;7.628;2023-06-19T07:32:26;22.60;99.90
2999;DHT22;1509;51.964;7.628;2023-06-19T07:34:53;22.70;99.90
2999;DHT22;1509;51.964;7.628;2023-06-19T07:37:18;22.70;99.90
2999;DHT22;1509;51.964;7.628;2023-06-19T07:39:45;22.70;99.90
2999;DHT22;1509;51.964;7.628;2023-06-19T07:42:12;22.80;99.90
2999;DHT22;1509;51.964;7.628;2023-06-19T07:44:38;22.80;99.90
2999;DHT22;1509;51.964;7.628;2023-06-19T07:47:04;22.80;99.90
2999;DHT22;1509;51.964;7.628;2023-06-19T07:49:29;22.90;99.90
2999;DHT22;1509;51.964;7.628;2023-06-19T07:51:55;23.10;99.90
2999;DHT22;1509;51.964;7.628;2023-06-19T07:54:20;23.30;99.90
2999;DHT22;1509;51.964;7.628;2023-06-19T07:56:46;23.30;99.90
2999;DHT22;1509;51.964;7.628;2023-06-19T07:59:11;23.50;99.90
2999;DHT22;1509;51.964;7.628;2023-06-19T08:01:39;23.60;99.90
2999;DHT22;1509;51.964;7.628;2023-06-19T08:04:05;23.60;99.90
2999;DHT22;1509;51.964;7.628;2023-06-19T08:06:31;23.40;99.90
2999;DHT22;1509;51.964;7.628;2023-06-19T08:08:56;23.40;99.90
2999;DHT22;1509;51.964;7.628;2023-06-19T08:11:24;23.40;99.90
2999;DHT22;1509;51.964;7.628;2023-06-19T08:13:50;23.50;99.90
2999;DHT22;1509;51.964;7.628;2023-06-19T08:16:16;23.70;99.90
2999;DHT22;1509;51.964;7.628;2023-06-19T08:18:44;23.70;99.90
2999;DHT22;1509;51.964;7.628;2023-06-19T08:21:10;23.70;99.90
2999;DHT22;1509;51.964;7.628;2023-06-19T08:23:35;23.80;99.90
2999;DHT22;1509;51.964;7.628;2023-06-19T08:26:01;23.80;99.90
2999;DHT22;1509;51.964;7.628;2023-06-19T08:28:27;23.60;99.90
2999;DHT22;1509;51.964;7.628;2023-06-19T08:30:53;23.60;99.90
2999;DHT22;1509;51.964;7.628;2023-06-19T08:33:18;23.60;99.90
2999;DHT22;1509;51.964;7.628;2023-06-19T08:35:44;23.70;99.90
2999;DHT22;1509;51.964;7.628;2023-06-19T08:38:11;23.80;99.90
2999;DHT22;1509;51.964;7.628;2023-06-19T08:40:37;23.60;99.90
2999;DHT22;1509;51.964;7.628;2023-06-19T08:43:03;23.60;99.90
2999;DHT22;1509;51.964;7.628;2023-06-19T08:45:29;23.70;99.90
2999;DHT22;1509;51.964;7.628;2023-06-19T08:48:01;23.80;99.90
2999;DHT22;1509;51.964;7.628;2023-06-19T08:50:33;23.70;99.90
2999;DHT22;1509;51.964;7.628;2023-06-19T08:52:59;23.70;99.90
2999;DHT22;1509;51.964;7.628;2023-06-19T08:55:25;23.70;99.90
2999;DHT22;1509;51.964;7.628;2023-06-19T08:57:51;23.70;99.90
2999;DHT22;1509;51.964;7.628;2023-06-19T09:00:28;23.70;99.90
2999;DHT22;1509;51.964;7.628;2023-06-19T09:03:03;23.70;99.90
2999;DHT22;1509;51.964;7.628;2023-06-19T09:05:31;23.60;99.90
2999;DHT22;1509;51.964;7.628;2023-06-19T09:07:59;23.70;99.90
2999;DHT22;1509;51.964;7.628;2023-06-19T09:10:26;23.90;99.90
2999;DHT22;1509;51.964;7.628;2023-06-19T09:13:03;24.00;99.90
2999;DHT22;1509;51.964;7.628;2023-06-19T09:15:36;24.00;99.90
2999;DHT22;1509;51.964;7.628;2023-06-19T09:18:07;24.20;99.90
2999;DHT22;1509;51.964;7.628;2023-06-19T09:20:40;24.40;99.90
2999;DHT22;1509;51.964;7.628;2023-06-19T09:23:13;24.60;99.90
2999;DHT22;1509;51.964;7.628;2023-06-19T09:26:04;24.90;99.90
2999;DHT22;1509;51.964;7.628;2023-06-19T09:28:30;25.10;99.90
2999;DHT22;1509;51.964;7.628;2023-06-19T09:31:00;25.00;99.90
2999;DHT22;1509;51.964;7.628;2023-06-19T09:33:28;24.80;99.90
2999;DHT22;1509;51.964;7.628;2023-06-19T09:35:55;24.50;99.90
2999;DHT22;1509;51.964;7.628;2023-06-19T09:38:29;24.30;99.90
2999;DHT22;1509;51.964;7.628;2023-06-19T09:40:56;24.30;99.90
2999;DHT22;1509;51.964;7.628;2023-06-19T09:43:26;24.30;99.90
2999;DHT22;1509;51.964;7.628;2023-06-19T09:45:55;24.20;99.90
2999;DHT22;1509;51.964;7.628;2023-06-19T09:48:28;24.00;99.90
2999;DHT22;1509;51.964;7.628;2023-06-19T09:51:25;23.90;99.90
2999;DHT22;1509;51.964;7.628;2023-06-19T09:53:51;24.00;99.90
2999;DHT22;1509;51.964;7.628;2023-06-19T09:56:17;24.20;99.90
2999;DHT22;1509;51.964;7.628;2023-06-19T09:58:48;24.40;99.90
2999;DHT22;1509;51.964;7.628;2023-06-19T10:01:15;24.30;99.90
2999;DHT22;1509;51.964;7.628;2023-06-19T10:03:44;24.20;99.90
2999;DHT22;1509;51.964;7.628;2023-06-19T10:06:14;24.00;99.90
2999;DHT22;1509;51.964;7.628;2023-06-19T10:08:42;24.00;99.90
2999;DHT22;1509;51.964;7.628;2023-06-19T10:11:12;24.00;99.90
2999;DHT22;1509;51.964;7.628;2023-06-19T10:13:41;24.00;99.90
2999;DHT22;1509;51.964;7.628;2023-06-19T10:16:07;24.30;99.90
2999;DHT22;1509;51.964;7.628;2023-06-19T10:18:44;24.30;99.90
2999;DHT22;1509;51.964;7.628;2023-06-19T10:21:21;24.20;99.90
2999;DHT22;1509;51.964;7.628;2023-06-19T10:23:54;24.50;99.90
2999;DHT22;1509;51.964;7.628;2023-06-19T10:26:32;25.50;99.90
2999;DHT22;1509;51.964;7.628;2023-06-19T10:28:58;26.90;99.90
2999;DHT22;1509;51.964;7.628;2023-06-19T10:31:24;27.20;99.90
2999;DHT22;1509;51.964;7.628;2023-06-19T10:33:50;27.50;99.90
2999;DHT22;1509;51.964;7.628;2023-06-19T10:36:22;27.60;99.90
2999;DHT22;1509;51.964;7.628;2023-06-19T10:38:49;27.70;99.90
2999;DHT22;1509;51.964;7.628;2023-06-19T10:41:25;27.10;99.90
2999;DHT22;1509;51.964;7.628;2023-06-19T10:43:57;25.70;99.90
2999;DHT22;1509;51.964;7.628;2023-06-19T10:46:24;25.20;99.90
2999;DHT22;1509;51.964;7.628;2023-06-19T10:48:50;25.20;99.90
2999;DHT22;1509;51.964;7.628;2023-06-19T10:51:20;25.00;99.90
2999;DHT22;1509;51.964;7.628;2023-06-19T10:53:45;24.80;99.90
2999;DHT22;1509;51.964;7.628;2023-06-19T10:56:11;24.60;99.90
2999;DHT22;1509;51.964;7.628;2023-06-19T10:58:37;25.00;99.90
2999;DHT22;1509;51.964;7.628;2023-06-19T11:01:02;25.50;99.90
2999;DHT22;1509;51.964;7.628;2023-06-19T11:03:32;25.30;99.90
2999;DHT22;1509;51.964;7.628;2023-06-19T11:05:57;25.30;99.90
2999;DHT22;1509;51.964;7.628;2023-06-19T11:08:23;25.30;99.90
2999;DHT22;1509;51.964;7.628;2023-06-19T11:10:50;25.10;99.90
2999;DHT22;1509;51.964;7.628;2023-06-19T11:13:18;24.60;99.90
2999;DHT22;1509;51.964;7.628;2023-06-19T11:15:44;25.30;99.90
2999;DHT22;1509;51.964;7.628;2023-06-19T11:18:10;26.80;99.90
2999;DHT22;1509;51.964;7.628;2023-06-19T11:20:44;28.60;99.90
2999;DHT22;1509;51.964;7.628;2023-06-19T11:23:10;29.00;99.90
2999;DHT22;1509;51.964;7.628;2023-06-19T11:25:40;28.50;99.90
2999;DHT22;1509;51.964;7.628;2023-06-19T11:28:13;27.30;99.90
2999;DHT22;1509;51.964;7.628;2023-06-19T11:30:39;26.90;99.90
2999;DHT22;1509;51.964;7.628;2023-06-19T11:33:19;26.80;99.90
2999;DHT22;1509;51.964;7.628;2023-06-19T11:35:52;26.50;99.90
2999;DHT22;1509;51.964;7.628;2023-06-19T11:38:19;25.90;99.90
2999;DHT22;1509;51.964;7.628;2023-06-19T11:40:45;25.60;99.90
2999;DHT22;1509;51.964;7.628;2023-06-19T11:43:11;26.00;99.90
2999;DHT22;1509;51.964;7.628;2023-06-19T11:45:48;27.30;99.90
2999;DHT22;1509;51.964;7.628;2023-06-19T11:48:21;28.60;99.90
2999;DHT22;1509;51.964;7.628;2023-06-19T11:50:46;29.20;99.90
2999;DHT22;1509;51.964;7.628;2023-06-19T11:53:12;28.70;99.90
2999;DHT22;1509;51.964;7.628;2023-06-19T11:55:38;28.60;99.90
2999;DHT22;1509;51.964;7.628;2023-06-19T11:58:04;27.30;99.90
2999;DHT22;1509;51.964;7.628;2023-06-19T12:00:29;27.20;99.90
2999;DHT22;1509;51.964;7.628;2023-06-19T12:02:55;27.50;99.90
2999;DHT22;1509;51.964;7.628;2023-06-19T12:05:22;28.10;99.90
2999;DHT22;1509;51.964;7.628;2023-06-19T12:07:48;28.70;99.90
2999;DHT22;1509;51.964;7.628;2023-06-19T12:10:13;28.70;99.90
2999;DHT22;1509;51.964;7.628;2023-06-19T12:12:39;29.10;99.90
2999;DHT22;1509;51.964;7.628;2023-06-19T12:15:05;28.90;99.90
2999;DHT22;1509;51.964;7.628;2023-06-19T12:17:31;28.40;99.90
2999;DHT22;1509;51.964;7.628;2023-06-19T12:19:58;28.20;99.90
2999;DHT22;1509;51.964;7.628;2023-06-19T12:22:24;27.80;99.90
2999;DHT22;1509;51.964;7.628;2023-06-19T12:24:49;27.30;99.90
2999;DHT22;1509;51.964;7.628;2023-06-19T12:27:15;27.60;99.90
2999;DHT22;1509;51.964;7.628;2023-06-19T12:29:40;27.70;99.90
2999;DHT22;1509;51.964;7.628;2023-06-19T12:32:06;27.70;99.90
2999;DHT22;1509;51.964;7.628;2023-06-19T12:34:32;28.10;99.90
2999;DHT22;1509;51.964;7.628;2023-06-19T12:36:58;28.20;99.90
2999;DHT22;1509;51.964;7.628;2023-06-19T12:39:26;28.80;99.90
2999;DHT22;1509;51.964;7.628;2023-06-19T12:41:52;29.70;99.90
2999;DHT22;1509;51.964;7.628;2023-06-19T12:44:18;29.40;99.90
2999;DHT22;1509;51.964;7.628;2023-06-19T12:46:44;28.90;99.90
2999;DHT22;1509;51.964;7.628;2023-06-19T12:49:09;28.50;99.90
2999;DHT22;1509;51.964;7.628;2023-06-19T12:51:35;28.50;99.90
2999;DHT22;1509;51.964;7.628;2023-06-19T12:54:04;28.80;99.90
2999;DHT22;1509;51.964;7.628;2023-06-19T12:56:32;28.70;99.90
2999;DHT22;1509;51.964;7.628;2023-06-19T12:58:58;28.30;99.90
2999;DHT22;1509;51.964;7.628;2023-06-19T13:01:23;28.30;99.90
2999;DHT22;1509;51.964;7.628;2023-06-19T13:03:49;28.30;99.90
2999;DHT22;1509;51.964;7.628;2023-06-19T13:06:14;28.50;99.90
2999;DHT22;1509;51.964;7.628;2023-06-19T13:08:40;28.60;99.90
2999;DHT22;1509;51.964;7.628;2023-06-19T13:11:06;29.20;99.90
2999;DHT22;1509;51.964;7.628;2023-06-19T13:13:31;29.10;99.90
2999;DHT22;1509;51.964;7.628;2023-06-19T13:15:57;28.80;99.90
2999;DHT22;1509;51.964;7.628;2023-06-19T13:18:22;28.60;99.90
2999;DHT22;1509;51.964;7.628;2023-06-19T13:20:48;28.80;99.90
2999;DHT22;1509;51.964;7.628;2023-06-19T13:23:14;28.80;99.90
2999;DHT22;1509;51.964;7.628;2023-06-19T13:25:40;29.00;99.90
2999;DHT22;1509;51.964;7.628;2023-06-19T13:28:06;28.90;99.90
2999;DHT22;1509;51.964;7.628;2023-06-19T13:30:31;28.70;99.90
2999;DHT22;1509;51.964;7.628;2023-06-19T13:32:57;28.60;99.90
2999;DHT22;1509;51.964;7.628;2023-06-19T13:35:23;28.50;99.90
2999;DHT22;1509;51.964;7.628;2023-06-19T13:37:48;28.50;99.90
2999;DHT22;1509;51.964;7.628;2023-06-19T13:40:14;28.50;99.90
2999;DHT22;1509;51.964;7.628;2023-06-19T13:42:40;28.50;99.90
2999;DHT22;1509;51.964;7.628;2023-06-19T13:45:06;28.60;99.90
2999;DHT22;1509;51.964;7.628;2023-06-19T13:47:32;28.70;99.90
2999;DHT22;1509;51.964;7.628;2023-06-19T13:49:57;29.00;99.90
2999;DHT22;1509;51.964;7.628;2023-06-19T13:52:23;28.90;99.90
2999;DHT22;1509;51.964;7.628;2023-06-19T13:54:49;29.10;99.90
2999;DHT22;1509;51.964;7.628;2023-06-19T13:57:15;29.50;99.90
2999;DHT22;1509;51.964;7.628;2023-06-19T13:59:40;29.60;99.90
2999;DHT22;1509;51.964;7.628;2023-06-19T14:02:06;29.70;99.90
2999;DHT22;1509;51.964;7.628;2023-06-19T14:04:32;29.70;99.90
2999;DHT22;1509;51.964;7.628;2023-06-19T14:06:57;28.90;99.90
2999;DHT22;1509;51.964;7.628;2023-06-19T14:09:23;28.40;99.90
2999;DHT22;1509;51.964;7.628;2023-06-19T14:11:49;28.50;99.90
2999;DHT22;1509;51.964;7.628;2023-06-19T14:14:14;28.70;99.90
2999;DHT22;1509;51.964;7.628;2023-06-19T14:16:40;29.00;99.90
2999;DHT22;1509;51.964;7.628;2023-06-19T14:19:06;28.80;99.90
2999;DHT22;1509;51.964;7.628;2023-06-19T14:21:31;28.50;99.90
2999;DHT22;1509;51.964;7.628;2023-06-19T14:23:59;28.70;99.90
2999;DHT22;1509;51.964;7.628;2023-06-19T14:26:25;28.50;99.90
2999;DHT22;1509;51.964;7.628;2023-06-19T14:28:51;28.10;99.90
2999;DHT22;1509;51.964;7.628;2023-06-19T14:31:20;28.20;99.90
2999;DHT22;1509;51.964;7.628;2023-06-19T14:33:46;28.20;99.90
2999;DHT22;1509;51.964;7.628;2023-06-19T14:36:11;27.70;99.90
2999;DHT22;1509;51.964;7.628;2023-06-19T14:38:37;27.60;99.90
2999;DHT22;1509;51.964;7.628;2023-06-19T14:41:03;28.00;99.90
2999;DHT22;1509;51.964;7.628;2023-06-19T14:43:29;28.40;99.90
2999;DHT22;1509;51.964;7.628;2023-06-19T14:45:55;28.70;99.90
2999;DHT22;1509;51.964;7.628;2023-06-19T14:48:21;29.00;99.90
2999;DHT22;1509;51.964;7.628;2023-06-19T14:50:47;28.60;99.90
2999;DHT22;1509;51.964;7.628;2023-06-19T14:53:12;28.50;99.90
2999;DHT22;1509;51.964;7.628;2023-06-19T14:55:38;28.60;99.90
2999;DHT22;1509;51.964;7.628;2023-06-19T14:58:08;28.60;99.90
2999;DHT22;1509;51.964;7.628;2023-06-19T15:00:34;28.30;99.90
2999;DHT22;1509;51.964;7.628;2023-06-19T15:03:04;28.00;99.90
2999;DHT22;1509;51.964;7.628;2023-06-19T15:05:29;27.90;99.90
2999;DHT22;1509;51.964;7.628;2023-06-19T15:07:55;28.10;99.90
2999;DHT22;1509;51.964;7.628;2023-06-19T15:10:21;28.10;99.90
2999;DHT22;1509;51.964;7.628;2023-06-19T15:12:46;28.30;99.90
2999;DHT22;1509;51.964;7.628;2023-06-19T15:15:12;28.30;99.90
2999;DHT22;1509;51.964;7.628;2023-06-19T15:17:37;28.40;99.90
2999;DHT22;1509;51.964;7.628;2023-06-19T15:20:04;28.50;99.90
2999;DHT22;1509;51.964;7.628;2023-06-19T15:22:29;28.70;99.90
2999;DHT22;1509;51.964;7.628;2023-06-19T15:24:55;28.90;99.90
2999;DHT22;1509;51.964;7.628;2023-06-19T15:27:21;29.00;99.90
2999;DHT22;1509;51.964;7.628;2023-06-19T15:29:46;28.80;99.90
2999;DHT22;1509;51.964;7.628;2023-06-19T15:32:12;28.50;99.90
2999;DHT22;1509;51.964;7.628;2023-06-19T15:34:38;28.30;99.90
2999;DHT22;1509;51.964;7.628;2023-06-19T15:37:04;28.00;99.90
2999;DHT22;1509;51.964;7.628;2023-06-19T15:39:30;27.60;99.90
2999;DHT22;1509;51.964;7.628;2023-06-19T15:41:58;27.40;99.90
2999;DHT22;1509;51.964;7.628;2023-06-19T15:44:23;27.30;99.90
2999;DHT22;1509;51.964;7.628;2023-06-19T15:46:49;27.20;99.90
2999;DHT22;1509;51.964;7.628;2023-06-19T15:49:14;27.30;99.90
2999;DHT22;1509;51.964;7.628;2023-06-19T15:51:41;27.30;99.90
2999;DHT22;1509;51.964;7.628;2023-06-19T15:54:06;27.30;99.90
2999;DHT22;1509;51.964;7.628;2023-06-19T15:56:32;27.30;99.90
2999;DHT22;1509;51.964;7.628;2023-06-19T15:58:57;27.60;99.90